Time;durP1;ratioP1;P1;durP2;ratioP2;P2;SDS_P1;SDS_P2;PMS_P1;PMS_P2;Temp;Humidity;BMP_temperature;BMP_pressure;BME280_temperature;BME280_humidity;BME280_pressure;Samples;Min_cycle;Max_cycle;Signal;HPM_P1;HPM_P2
2022/08/04 00:00:36;;;;;;;;;;;;;;;24.68;59.97;101005.78;1020211;29;763;-84
2022/08/04 00:01:26;;;;;;;;;;;;;;;24.67;60.13;101001.34;1020362;29;683;-84
2022/08/04 00:02:16;;;;;;;;;;;;;;;24.68;60.05;101005.78;1020174;29;663;-82
2022/08/04 00:03:07;;;;;;;;;;;;;;;24.67;60.12;100998.63;1024494;29;631;-83
2022/08/04 00:03:57;;;;;;;;;;;;;;;24.67;60.03;100998.63;1021054;29;790;-81
2022/08/04 00:04:48;;;;;;;;;;;;;;;24.66;60.26;100991.50;1016750;29;731;-82
2022/08/04 00:05:38;;;;;;;;;;;;;;;24.69;60.51;101004.75;1021097;29;687;-81
2022/08/04 00:06:29;;;;;;;;;;;;;;;24.68;60.41;100993.00;1020528;29;628;-81
2022/08/04 00:07:19;;;;;;;;;;;;;;;24.69;60.38;101002.03;1020832;29;768;-82
2022/08/04 00:08:09;;;;;;;;;;;;;;;24.65;60.57;100995.25;1024403;29;664;-81
2022/08/04 00:09:00;;;;;;;;;;;;;;;24.65;60.50;100995.25;1024360;29;639;-81
2022/08/04 00:09:50;;;;;;;;;;;;;;;24.64;60.75;100996.28;1017694;29;706;-81
2022/08/04 00:10:41;;;;;;;;;;;;;;;24.62;60.80;101001.06;1016487;29;627;-81
2022/08/04 00:11:31;;;;;;;;;;;;;;;24.60;60.83;101000.41;1021757;28;674;-81
2022/08/04 00:12:22;;;;;;;;;;;;;;;24.62;60.84;101009.25;1020134;29;659;-80
2022/08/04 00:13:12;;;;;;;;;;;;;;;24.58;61.17;101004.16;1020260;29;576;-80
2022/08/04 00:14:03;;;;;;;;;;;;;;;24.59;61.18;100996.81;1024341;29;663;-80
2022/08/04 00:14:53;;;;;;;;;;;;;;;24.60;61.17;101001.25;1024477;29;614;-80
2022/08/04 00:15:43;;;;;;;;;;;;;;;24.61;61.18;101004.81;1014499;28;847;-81
2022/08/04 00:16:34;;;;;;;;;;;;;;;24.60;61.25;101003.13;1013670;29;659;-80
2022/08/04 00:17:24;;;;;;;;;;;;;;;24.59;61.31;100999.56;1017709;29;707;-80
2022/08/04 00:18:15;;;;;;;;;;;;;;;24.63;60.87;101003.59;1017938;29;615;-80
2022/08/04 00:19:05;;;;;;;;;;;;;;;24.59;61.04;101005.00;1017966;29;768;-80
2022/08/04 00:19:56;;;;;;;;;;;;;;;24.60;61.16;101000.41;1018054;29;670;-80
2022/08/04 00:20:46;;;;;;;;;;;;;;;24.58;61.27;101000.59;1017979;29;820;-80
2022/08/04 00:21:36;;;;;;;;;;;;;;;24.56;61.30;100998.03;1017296;29;836;-80
2022/08/04 00:22:27;;;;;;;;;;;;;;;24.57;61.12;100998.91;1016673;29;989;-81
2022/08/04 00:23:17;;;;;;;;;;;;;;;24.58;61.08;100998.72;1013552;29;674;-79
2022/08/04 00:24:08;;;;;;;;;;;;;;;24.55;61.27;100996.34;1012881;29;631;-79
2022/08/04 00:24:58;;;;;;;;;;;;;;;24.53;61.38;101003.06;1012944;29;691;-79
2022/08/04 00:25:49;;;;;;;;;;;;;;;24.55;61.22;101001.81;1012897;29;769;-79
2022/08/04 00:26:39;;;;;;;;;;;;;;;24.51;61.50;101002.38;1013010;29;656;-79
2022/08/04 00:27:29;;;;;;;;;;;;;;;24.52;61.55;101001.34;1013027;29;628;-79
2022/08/04 00:28:20;;;;;;;;;;;;;;;24.50;61.56;100987.91;1012885;29;643;-78
2022/08/04 00:29:10;;;;;;;;;;;;;;;24.48;61.61;100994.56;1013060;29;683;-79
2022/08/04 00:30:01;;;;;;;;;;;;;;;24.49;61.50;100988.94;1014186;29;988;-80
2022/08/04 00:30:51;;;;;;;;;;;;;;;24.47;61.33;100987.44;1015103;29;1170;-80
2022/08/04 00:31:42;;;;;;;;;;;;;;;24.44;61.57;100993.25;1019916;29;1906;-80
2022/08/04 00:32:33;;;;;;;;;;;;;;;24.45;61.64;100995.78;1020691;29;622;-79
2022/08/04 00:33:23;;;;;;;;;;;;;;;24.45;61.63;100993.06;1017816;29;593;-82
2022/08/04 00:34:13;;;;;;;;;;;;;;;24.44;61.67;100991.38;1017312;29;631;-81
2022/08/04 00:35:04;;;;;;;;;;;;;;;24.44;61.56;100999.56;1017325;29;712;-81
2022/08/04 00:35:54;;;;;;;;;;;;;;;24.44;61.68;100985.94;1017290;29;651;-80
2022/08/04 00:36:45;;;;;;;;;;;;;;;24.43;61.84;100991.56;1017364;29;687;-80
2022/08/04 00:37:35;;;;;;;;;;;;;;;24.43;61.87;100986.09;1017281;29;710;-83
2022/08/04 00:38:26;;;;;;;;;;;;;;;24.47;61.67;100993.72;1017224;29;617;-83
2022/08/04 00:39:16;;;;;;;;;;;;;;;24.44;61.64;100988.66;1017260;29;602;-83
2022/08/04 00:40:07;;;;;;;;;;;;;;;24.46;61.83;100983.88;1017160;29;631;-83
2022/08/04 00:40:57;;;;;;;;;;;;;;;24.45;61.69;100981.31;1017404;29;663;-82
2022/08/04 00:41:47;;;;;;;;;;;;;;;24.39;62.18;100982.91;1017235;29;592;-81
2022/08/04 00:42:38;;;;;;;;;;;;;;;24.38;62.03;100989.38;1017170;29;620;-82
2022/08/04 00:43:28;;;;;;;;;;;;;;;24.38;62.16;100981.22;1017267;29;754;-83
2022/08/04 00:44:19;;;;;;;;;;;;;;;24.39;62.11;100984.78;1017188;29;687;-81
2022/08/04 00:45:09;;;;;;;;;;;;;;;24.39;62.15;100982.91;1017293;29;718;-81
2022/08/04 00:45:59;;;;;;;;;;;;;;;24.36;61.93;100975.13;1017209;29;608;-80
2022/08/04 00:46:50;;;;;;;;;;;;;;;24.40;62.22;100979.16;1017164;29;660;-81
2022/08/04 00:47:40;;;;;;;;;;;;;;;24.38;62.07;100975.75;1018224;29;644;-81
2022/08/04 00:48:31;;;;;;;;;;;;;;;24.37;62.39;100978.66;1017167;29;725;-81
2022/08/04 00:49:21;;;;;;;;;;;;;;;24.36;62.32;100974.28;1017910;28;741;-81
2022/08/04 00:50:12;;;;;;;;;;;;;;;24.37;62.27;100981.41;1016404;29;615;-81
2022/08/04 00:51:02;;;;;;;;;;;;;;;24.35;62.28;100970.72;1016426;29;655;-81
2022/08/04 00:51:53;;;;;;;;;;;;;;;24.32;62.05;100973.81;1016658;29;1915;-80
2022/08/04 00:52:43;;;;;;;;;;;;;;;24.35;62.29;100962.53;1017221;29;643;-80
2022/08/04 00:53:34;;;;;;;;;;;;;;;24.35;61.95;100972.59;1017246;29;762;-81
2022/08/04 00:54:24;;;;;;;;;;;;;;;24.30;62.16;100975.88;1017242;29;594;-81
2022/08/04 00:55:14;;;;;;;;;;;;;;;24.32;62.41;100972.97;1017940;28;662;-81
2022/08/04 00:56:05;;;;;;;;;;;;;;;24.34;62.30;100970.91;1016319;29;671;-83
2022/08/04 00:56:55;;;;;;;;;;;;;;;24.33;62.03;100964.59;1016492;29;659;-82
2022/08/04 00:57:46;;;;;;;;;;;;;;;24.34;62.19;100970.91;1017771;29;637;-83
2022/08/04 00:58:36;;;;;;;;;;;;;;;24.31;62.02;100961.22;1017606;29;1267;-82
2022/08/04 00:59:26;;;;;;;;;;;;;;;24.33;62.27;100970.06;1017738;29;658;-83
2022/08/04 01:00:17;;;;;;;;;;;;;;;24.31;62.13;100968.53;1017803;29;654;-83
2022/08/04 01:01:07;;;;;;;;;;;;;;;24.29;62.19;100963.28;1016894;29;758;-83
2022/08/04 01:01:58;;;;;;;;;;;;;;;24.26;62.45;100960.91;1017432;29;667;-82
2022/08/04 01:02:48;;;;;;;;;;;;;;;24.27;62.72;100965.34;1017341;29;616;-82
2022/08/04 01:03:39;;;;;;;;;;;;;;;24.27;62.49;100965.34;1017199;29;715;-82
2022/08/04 01:04:29;;;;;;;;;;;;;;;24.29;62.25;100966.00;1017112;29;592;-83
2022/08/04 01:05:20;;;;;;;;;;;;;;;24.27;62.66;100959.88;1016743;29;704;-83
2022/08/04 01:06:11;;;;;;;;;;;;;;;24.27;62.32;100949.00;1017318;29;859;-81
2022/08/04 01:07:01;;;;;;;;;;;;;;;24.27;62.08;100948.16;1017284;29;670;-82
2022/08/04 01:07:52;;;;;;;;;;;;;;;24.24;62.21;100954.81;1017152;29;666;-81
2022/08/04 01:08:42;;;;;;;;;;;;;;;24.26;62.15;100958.19;1017237;29;608;-82
2022/08/04 01:09:33;;;;;;;;;;;;;;;24.23;62.48;100963.97;1017106;29;674;-82
2022/08/04 01:10:23;;;;;;;;;;;;;;;24.23;62.50;100955.81;1016862;29;631;-81
2022/08/04 01:11:14;;;;;;;;;;;;;;;24.23;62.56;100953.97;1013529;29;635;-81
2022/08/04 01:12:04;;;;;;;;;;;;;;;24.25;62.10;100950.22;1012924;29;1882;-80
2022/08/04 01:12:55;;;;;;;;;;;;;;;24.21;62.50;100950.53;1015946;29;597;-82
2022/08/04 01:13:45;;;;;;;;;;;;;;;24.25;62.49;100951.06;1017109;29;603;-82
2022/08/04 01:14:35;;;;;;;;;;;;;;;24.21;62.36;100955.97;1017166;29;695;-82
2022/08/04 01:15:26;;;;;;;;;;;;;;;24.22;62.36;100952.22;1017055;29;1250;-82
2022/08/04 01:16:16;;;;;;;;;;;;;;;24.20;62.12;100953.44;1017151;29;691;-82
2022/08/04 01:17:07;;;;;;;;;;;;;;;24.19;62.34;100949.03;1017079;29;608;-81
2022/08/04 01:17:57;;;;;;;;;;;;;;;24.21;62.29;100955.13;1017782;28;651;-82
2022/08/04 01:18:48;;;;;;;;;;;;;;;24.19;62.04;100949.88;1017971;28;671;-82
2022/08/04 01:19:38;;;;;;;;;;;;;;;24.17;62.59;100943.78;1013541;29;593;-82
2022/08/04 01:20:28;;;;;;;;;;;;;;;24.20;62.24;100939.84;1012980;29;719;-82
2022/08/04 01:21:19;;;;;;;;;;;;;;;24.18;62.40;100945.47;1016614;29;611;-81
2022/08/04 01:22:09;;;;;;;;;;;;;;;24.17;62.62;100945.69;1017073;29;647;-82
2022/08/04 01:23:00;;;;;;;;;;;;;;;24.16;62.30;100946.72;1020278;29;1013;-81
2022/08/04 01:23:50;;;;;;;;;;;;;;;24.16;62.27;100950.28;1022084;28;599;-82
2022/08/04 01:24:41;;;;;;;;;;;;;;;24.14;62.73;100940.59;1022303;28;647;-82
2022/08/04 01:25:31;;;;;;;;;;;;;;;24.15;62.47;100945.84;1022175;28;635;-83
2022/08/04 01:26:21;;;;;;;;;;;;;;;24.14;62.15;100946.03;1022190;28;705;-84
2022/08/04 01:27:12;;;;;;;;;;;;;;;24.10;62.64;100942.00;1021016;29;639;-84
2022/08/04 01:28:02;;;;;;;;;;;;;;;24.09;62.55;100948.47;1022005;28;666;-83
2022/08/04 01:28:53;;;;;;;;;;;;;;;24.07;62.48;100945.06;1022202;28;690;-81
2022/08/04 01:29:43;;;;;;;;;;;;;;;24.10;62.79;100937.38;1022160;28;666;-81
2022/08/04 01:30:34;;;;;;;;;;;;;;;24.11;62.24;100943.69;1021000;29;658;-81
2022/08/04 01:31:24;;;;;;;;;;;;;;;24.09;62.33;100948.47;1022258;28;585;-82
2022/08/04 01:32:14;;;;;;;;;;;;;;;24.10;62.35;100936.53;1022000;28;655;-82
2022/08/04 01:33:05;;;;;;;;;;;;;;;24.08;62.30;100946.78;1022343;28;804;-82
2022/08/04 01:33:55;;;;;;;;;;;;;;;24.11;62.59;100951.84;1022279;28;619;-82
2022/08/04 01:34:46;;;;;;;;;;;;;;;24.09;62.81;100946.59;1022264;28;631;-83
2022/08/04 01:35:36;;;;;;;;;;;;;;;24.07;62.41;100943.19;1021732;28;607;-81
2022/08/04 01:36:26;;;;;;;;;;;;;;;24.07;62.37;100945.06;1021922;28;643;-82
2022/08/04 01:37:17;;;;;;;;;;;;;;;24.07;62.68;100943.19;1022278;28;648;-83
2022/08/04 01:38:07;;;;;;;;;;;;;;;24.09;62.67;100940.28;1021828;28;1192;-80
2022/08/04 01:38:58;;;;;;;;;;;;;;;24.09;62.31;100943.00;1019968;29;1303;-80
2022/08/04 01:39:48;;;;;;;;;;;;;;;24.09;62.63;100941.13;1019962;29;1093;-80
2022/08/04 01:40:39;;;;;;;;;;;;;;;24.10;62.77;100939.25;1018957;29;1156;-81
2022/08/04 01:41:29;;;;;;;;;;;;;;;24.10;62.63;100936.53;1020817;29;1148;-79
2022/08/04 01:42:20;;;;;;;;;;;;;;;24.11;62.50;100943.69;1019594;29;1125;-79
2022/08/04 01:43:10;;;;;;;;;;;;;;;24.08;62.66;100939.44;1018810;29;1113;-79
2022/08/04 01:44:01;;;;;;;;;;;;;;;24.06;62.38;100940.66;1020872;29;1144;-80
2022/08/04 01:44:51;;;;;;;;;;;;;;;24.04;62.51;100940.00;1020125;29;1206;-79
2022/08/04 01:45:41;;;;;;;;;;;;;;;24.06;62.40;100940.66;1020643;29;1152;-78
2022/08/04 01:46:32;;;;;;;;;;;;;;;24.05;62.49;100947.13;1018956;29;1093;-78
2022/08/04 01:47:22;;;;;;;;;;;;;;;24.04;62.85;100945.44;1020785;29;1145;-78
2022/08/04 01:48:13;;;;;;;;;;;;;;;24.06;62.73;100943.38;1019020;29;1073;-78
2022/08/04 01:49:03;;;;;;;;;;;;;;;24.04;62.46;100946.28;1020782;29;1156;-78
2022/08/04 01:49:54;;;;;;;;;;;;;;;24.01;62.45;100937.63;1018100;29;1097;-78
2022/08/04 01:50:44;;;;;;;;;;;;;;;24.01;62.41;100948.53;1020433;29;1128;-78
2022/08/04 01:51:34;;;;;;;;;;;;;;;24.04;62.40;100948.16;1020398;29;1178;-79
2022/08/04 01:52:25;;;;;;;;;;;;;;;24.02;62.49;100950.22;1020245;29;1186;-78
2022/08/04 01:53:15;;;;;;;;;;;;;;;24.03;62.81;100944.59;1016402;29;749;-78
2022/08/04 01:54:06;;;;;;;;;;;;;;;24.02;62.97;100939.34;1018656;29;1258;-78
2022/08/04 01:54:56;;;;;;;;;;;;;;;24.00;62.39;100946.88;1021152;28;1189;-78
2022/08/04 01:55:46;;;;;;;;;;;;;;;23.98;62.63;100943.47;1015327;29;1269;-78
2022/08/04 01:56:37;;;;;;;;;;;;;;;23.94;62.68;100937.56;1016011;29;1175;-78
2022/08/04 01:57:27;;;;;;;;;;;;;;;23.95;63.05;100936.53;1018747;29;1185;-78
2022/08/04 01:58:18;;;;;;;;;;;;;;;23.96;63.07;100938.22;1021048;29;1186;-77
2022/08/04 01:59:08;;;;;;;;;;;;;;;23.96;62.68;100937.38;1019272;29;1234;-78
2022/08/04 01:59:59;;;;;;;;;;;;;;;23.96;62.41;100940.09;1019899;29;1245;-76
2022/08/04 02:00:49;;;;;;;;;;;;;;;23.97;62.62;100936.34;1019930;29;1166;-76
2022/08/04 02:01:40;;;;;;;;;;;;;;;23.94;62.62;100937.56;1018654;29;1249;-77
2022/08/04 02:02:30;;;;;;;;;;;;;;;23.93;62.71;100933.13;1019960;29;1146;-77
2022/08/04 02:03:20;;;;;;;;;;;;;;;23.94;62.91;100931.25;1016599;29;1233;-77
2022/08/04 02:04:11;;;;;;;;;;;;;;;23.96;62.57;100932.78;1016525;29;1166;-78
2022/08/04 02:05:01;;;;;;;;;;;;;;;23.92;62.64;100928.72;1018988;29;1158;-77
2022/08/04 02:05:52;;;;;;;;;;;;;;;23.97;62.89;100931.75;1020107;29;1186;-77
2022/08/04 02:06:42;;;;;;;;;;;;;;;23.95;62.42;100932.94;1019089;29;1222;-76
2022/08/04 02:07:33;;;;;;;;;;;;;;;23.97;62.67;100931.75;1020197;29;1165;-77
2022/08/04 02:08:23;;;;;;;;;;;;;;;23.94;62.89;100926.66;1019081;29;1162;-79
2022/08/04 02:09:13;;;;;;;;;;;;;;;23.89;62.75;100924.47;1020312;29;1165;-78
2022/08/04 02:10:04;;;;;;;;;;;;;;;23.87;62.87;100923.81;1018621;29;1178;-78
2022/08/04 02:10:55;;;;;;;;;;;;;;;23.86;62.51;100924.84;1021343;28;1335;-78
2022/08/04 02:11:45;;;;;;;;;;;;;;;23.84;62.75;100926.91;1019328;29;1217;-79
2022/08/04 02:12:35;;;;;;;;;;;;;;;23.83;62.77;100922.47;1016500;29;1221;-79
2022/08/04 02:13:27;;;;;;;;;;;;;;;23.85;62.82;100923.16;1016593;29;1222;-80
2022/08/04 02:14:39;;;;;;;;;;;;;;;23.87;62.72;100928.41;1020169;29;1205;-79
2022/08/04 02:15:27;;;;;;;;;;;;;;;23.84;63.12;100926.06;1019081;29;1167;-78
2022/08/04 02:16:18;;;;;;;;;;;;;;;23.85;62.92;100933.19;1016271;29;1178;-79
2022/08/04 02:17:08;;;;;;;;;;;;;;;23.85;62.61;100920.44;1016552;29;1232;-80
2022/08/04 02:17:59;;;;;;;;;;;;;;;23.87;62.52;100918.38;1020239;29;1079;-82
2022/08/04 02:18:49;;;;;;;;;;;;;;;23.85;62.66;100916.84;1019466;29;1182;-80
2022/08/04 02:19:41;;;;;;;;;;;;;;;23.86;62.66;100913.09;1020201;29;702;-79
2022/08/04 02:20:31;;;;;;;;;;;;;;;23.88;62.74;100911.06;1021334;28;619;-80
2022/08/04 02:21:21;;;;;;;;;;;;;;;23.86;62.84;100910.38;1020263;29;1170;-79
2022/08/04 02:22:12;;;;;;;;;;;;;;;23.86;62.63;100907.66;1019643;29;1280;-79
2022/08/04 02:23:02;;;;;;;;;;;;;;;23.85;63.01;100906.81;1020200;29;1433;-80
2022/08/04 02:23:53;;;;;;;;;;;;;;;23.80;63.22;100909.28;1018388;29;1167;-80
2022/08/04 02:24:43;;;;;;;;;;;;;;;23.79;63.21;100912.19;1019524;29;1166;-80
2022/08/04 02:25:33;;;;;;;;;;;;;;;23.79;63.21;100904.00;1021687;29;1301;-79
2022/08/04 02:26:24;;;;;;;;;;;;;;;23.83;62.65;100903.44;1020671;29;1173;-81
2022/08/04 02:27:14;;;;;;;;;;;;;;;23.81;63.16;100908.25;1019621;29;1229;-79
2022/08/04 02:28:05;;;;;;;;;;;;;;;23.82;62.85;100909.94;1020374;29;1225;-79
2022/08/04 02:28:55;;;;;;;;;;;;;;;23.79;62.89;100907.56;1019782;29;1194;-79
2022/08/04 02:29:46;;;;;;;;;;;;;;;23.79;63.25;100910.31;1020557;29;1210;-79
2022/08/04 02:30:36;;;;;;;;;;;;;;;23.80;63.16;100913.88;1020831;29;615;-79
2022/08/04 02:31:27;;;;;;;;;;;;;;;23.81;63.06;100910.13;1017138;29;821;-79
2022/08/04 02:32:18;;;;;;;;;;;;;;;23.81;62.81;100910.97;1016659;29;745;-80
2022/08/04 02:33:08;;;;;;;;;;;;;;;23.81;62.98;100902.81;1020974;29;596;-80
2022/08/04 02:33:59;;;;;;;;;;;;;;;23.82;63.04;100907.22;1020842;29;623;-78
2022/08/04 02:34:49;;;;;;;;;;;;;;;23.81;62.61;100908.25;1020822;29;632;-78
2022/08/04 02:35:40;;;;;;;;;;;;;;;23.82;62.78;100901.78;1020826;29;600;-78
2022/08/04 02:36:30;;;;;;;;;;;;;;;23.79;62.77;100904.84;1020865;29;656;-77
2022/08/04 02:37:21;;;;;;;;;;;;;;;23.79;62.86;100906.72;1020885;29;647;-78
2022/08/04 02:38:11;;;;;;;;;;;;;;;23.81;62.86;100899.22;1020882;29;677;-78
2022/08/04 02:39:02;;;;;;;;;;;;;;;23.79;63.08;100899.41;1020832;29;631;-78
2022/08/04 02:39:52;;;;;;;;;;;;;;;23.77;62.96;100898.75;1020613;29;1320;-79
2022/08/04 02:40:42;;;;;;;;;;;;;;;23.77;63.20;100903.34;1020010;29;1182;-79
2022/08/04 02:41:33;;;;;;;;;;;;;;;23.75;63.03;100889.91;1019542;29;1226;-79
2022/08/04 02:42:23;;;;;;;;;;;;;;;23.75;63.32;100892.63;1020016;29;1170;-79
2022/08/04 02:43:14;;;;;;;;;;;;;;;23.75;63.30;100892.63;1018633;29;1233;-79
2022/08/04 02:44:04;;;;;;;;;;;;;;;23.79;63.35;100887.69;1019666;29;1169;-80
2022/08/04 02:44:55;;;;;;;;;;;;;;;23.76;63.09;100888.88;1019378;29;1268;-80
2022/08/04 02:45:46;;;;;;;;;;;;;;;23.76;63.26;100882.59;1020081;29;1273;-79
2022/08/04 02:46:37;;;;;;;;;;;;;;;23.72;62.89;100887.56;1020784;28;1081;-80
2022/08/04 02:47:27;;;;;;;;;;;;;;;23.73;62.96;100889.25;1020754;29;557;-79
2022/08/04 02:48:18;;;;;;;;;;;;;;;23.72;63.05;100886.72;1020777;29;607;-78
2022/08/04 02:49:08;;;;;;;;;;;;;;;23.70;63.29;100889.63;1020817;29;654;-80
2022/08/04 02:49:58;;;;;;;;;;;;;;;23.69;63.10;100889.78;1020920;29;685;-78
2022/08/04 02:50:49;;;;;;;;;;;;;;;23.67;63.44;100895.41;1017159;29;663;-78
2022/08/04 02:51:39;;;;;;;;;;;;;;;23.67;63.12;100898.13;1017039;29;709;-78
2022/08/04 02:52:30;;;;;;;;;;;;;;;23.68;63.07;100894.38;1020699;29;639;-78
2022/08/04 02:53:20;;;;;;;;;;;;;;;23.70;63.28;100894.22;1020738;29;643;-79
2022/08/04 02:54:11;;;;;;;;;;;;;;;23.71;63.41;100894.03;1020801;29;675;-80
2022/08/04 02:55:01;;;;;;;;;;;;;;;23.68;63.06;100893.53;1020849;29;639;-79
2022/08/04 02:55:52;;;;;;;;;;;;;;;23.69;63.27;100901.53;1020818;29;639;-80
2022/08/04 02:56:42;;;;;;;;;;;;;;;23.70;62.93;100886.91;1017103;29;659;-80
2022/08/04 02:57:32;;;;;;;;;;;;;;;23.70;62.95;100897.78;1017058;29;706;-80
2022/08/04 02:58:23;;;;;;;;;;;;;;;23.73;62.99;100894.69;1016519;29;706;-79
2022/08/04 02:59:13;;;;;;;;;;;;;;;23.72;64.80;100890.28;1017332;29;741;-79
2022/08/04 03:00:06;;;;;;;;;;;;;;;23.70;65.56;100881.44;1016173;29;683;-77
2022/08/04 03:00:56;;;;;;;;;;;;;;;23.71;65.16;100887.75;1016868;29;718;-77
2022/08/04 03:01:47;;;;;;;;;;;;;;;23.70;64.56;100880.59;1016229;29;683;-77
2022/08/04 03:02:37;;;;;;;;;;;;;;;23.67;64.46;100884.53;1015904;29;668;-77
2022/08/04 03:03:28;;;;;;;;;;;;;;;23.70;64.40;100889.63;1016325;29;722;-77
2022/08/04 03:04:18;;;;;;;;;;;;;;;23.67;64.49;100880.97;1016253;29;604;-77
2022/08/04 03:05:09;;;;;;;;;;;;;;;23.63;64.69;100875.06;1016369;29;649;-80
2022/08/04 03:05:59;;;;;;;;;;;;;;;23.68;64.40;100869.91;1016225;29;682;-80
2022/08/04 03:06:49;;;;;;;;;;;;;;;23.68;64.34;100871.78;1017097;29;682;-79
2022/08/04 03:07:40;;;;;;;;;;;;;;;23.68;64.40;100878.06;1017177;29;671;-82
2022/08/04 03:08:30;;;;;;;;;;;;;;;23.67;64.48;100873.66;1017365;29;741;-81
2022/08/04 03:09:21;;;;;;;;;;;;;;;23.67;64.27;100880.97;1039994;23;2084;-80
2022/08/04 03:10:11;;;;;;;;;;;;;;;23.66;64.15;100880.13;1021362;28;638;-78
2022/08/04 03:11:02;;;;;;;;;;;;;;;23.65;64.29;100881.16;1017496;29;702;-79
2022/08/04 03:11:52;;;;;;;;;;;;;;;23.65;64.62;100880.31;1017076;29;1978;-79
2022/08/04 03:12:42;;;;;;;;;;;;;;;23.69;63.83;100884.34;1017732;29;666;-79
2022/08/04 03:13:33;;;;;;;;;;;;;;;23.69;63.98;100873.47;1020877;29;694;-79
2022/08/04 03:14:23;;;;;;;;;;;;;;;23.67;64.47;100879.09;1019677;29;663;-79
2022/08/04 03:15:14;;;;;;;;;;;;;;;23.67;64.30;100878.25;1016937;29;1259;-79
2022/08/04 03:16:04;;;;;;;;;;;;;;;23.64;64.37;100882.22;1021077;29;718;-79
2022/08/04 03:16:55;;;;;;;;;;;;;;;23.62;64.43;100878.81;1020035;29;671;-78
2022/08/04 03:17:45;;;;;;;;;;;;;;;23.62;64.46;100877.97;1021463;29;692;-79
2022/08/04 03:18:35;;;;;;;;;;;;;;;23.61;64.54;100895.31;1020949;29;651;-79
2022/08/04 03:19:26;;;;;;;;;;;;;;;23.60;64.13;100878.16;1023529;29;632;-79
2022/08/04 03:20:16;;;;;;;;;;;;;;;23.61;64.41;100876.28;1023797;29;659;-79
2022/08/04 03:21:07;;;;;;;;;;;;;;;23.61;64.06;100881.72;1021279;29;710;-79
2022/08/04 03:21:57;;;;;;;;;;;;;;;23.59;63.95;100879.19;1020749;29;663;-79
2022/08/04 03:22:48;;;;;;;;;;;;;;;23.61;64.16;100877.13;1021247;29;659;-79
2022/08/04 03:23:38;;;;;;;;;;;;;;;23.61;64.25;100877.13;1020393;29;623;-78
2022/08/04 03:24:28;;;;;;;;;;;;;;;23.62;64.31;100881.53;1020727;29;647;-78
2022/08/04 03:25:19;;;;;;;;;;;;;;;23.58;64.22;100876.63;1020376;29;615;-79
2022/08/04 03:26:09;;;;;;;;;;;;;;;23.63;64.35;100876.94;1023790;29;666;-79
2022/08/04 03:27:00;;;;;;;;;;;;;;;23.63;64.23;100866.06;1025126;29;737;-80
2022/08/04 03:27:50;;;;;;;;;;;;;;;23.62;64.38;100876.09;1021394;28;663;-78
2022/08/04 03:28:40;;;;;;;;;;;;;;;23.59;63.95;100868.31;1021729;29;654;-79
2022/08/04 03:29:31;;;;;;;;;;;;;;;23.60;64.29;100871.88;1022022;29;702;-77
2022/08/04 03:30:21;;;;;;;;;;;;;;;23.62;63.98;100873.38;1021865;29;734;-77
2022/08/04 03:31:12;;;;;;;;;;;;;;;23.59;64.15;100871.03;1021239;29;662;-77
2022/08/04 03:32:02;;;;;;;;;;;;;;;23.58;64.04;100874.75;1022005;29;1902;-78
2022/08/04 03:32:53;;;;;;;;;;;;;;;23.56;63.97;100882.25;1021908;29;706;-77
2022/08/04 03:33:43;;;;;;;;;;;;;;;23.56;64.40;100876.81;1022070;29;646;-77
2022/08/04 03:34:34;;;;;;;;;;;;;;;23.57;64.20;100872.22;1024429;29;639;-77
2022/08/04 03:35:24;;;;;;;;;;;;;;;23.56;64.27;100874.09;1024215;29;643;-77
2022/08/04 03:36:15;;;;;;;;;;;;;;;23.55;64.30;100872.41;1021916;28;643;-79
2022/08/04 03:37:05;;;;;;;;;;;;;;;23.56;64.02;100875.97;1021705;29;702;-80
2022/08/04 03:37:55;;;;;;;;;;;;;;;23.56;64.38;100876.81;1025162;29;1045;-81
2022/08/04 03:38:46;;;;;;;;;;;;;;;23.56;64.33;100875.97;1017412;29;593;-81
2022/08/04 03:39:36;;;;;;;;;;;;;;;23.55;64.22;100875.13;1022683;29;1162;-81
2022/08/04 03:40:27;;;;;;;;;;;;;;;23.56;63.92;100881.41;1025084;29;647;-80
2022/08/04 03:41:17;;;;;;;;;;;;;;;23.58;64.21;100879.38;1025305;29;663;-80
2022/08/04 03:42:08;;;;;;;;;;;;;;;23.58;64.19;100873.91;1025552;29;695;-79
2022/08/04 03:42:58;;;;;;;;;;;;;;;23.57;63.89;100883.97;1032917;28;855;-80
2022/08/04 03:43:49;;;;;;;;;;;;;;;23.56;64.05;100878.69;1032995;28;717;-80
2022/08/04 03:44:39;;;;;;;;;;;;;;;23.52;64.27;100878.22;1028259;28;623;-79
2022/08/04 03:45:29;;;;;;;;;;;;;;;23.50;64.43;100872.06;1025348;29;666;-80
2022/08/04 03:46:20;;;;;;;;;;;;;;;23.50;64.23;100874.78;1024999;29;690;-79
2022/08/04 03:47:10;;;;;;;;;;;;;;;23.49;64.53;100873.94;1025249;29;626;-81
2022/08/04 03:48:01;;;;;;;;;;;;;;;23.50;64.12;100875.63;1025376;29;643;-80
2022/08/04 03:48:51;;;;;;;;;;;;;;;23.52;63.98;100875.50;1025018;29;641;-78
2022/08/04 03:49:41;;;;;;;;;;;;;;;23.54;63.96;100868.00;1025410;29;654;-79
2022/08/04 03:50:32;;;;;;;;;;;;;;;23.51;64.31;100874.63;1025489;29;649;-79
2022/08/04 03:53:41;;;;;;;;;;;;;;;22.60;66.30;100876.38;1026155;28;666;-81
2022/08/04 03:54:31;;;;;;;;;;;;;;;22.77;66.04;100889.72;1032949;28;658;-80
2022/08/04 03:55:22;;;;;;;;;;;;;;;22.67;66.14;100882.78;1033295;28;627;-80
2022/08/04 03:56:12;;;;;;;;;;;;;;;22.73;65.15;100882.94;1025776;28;701;-80
2022/08/04 03:57:02;;;;;;;;;;;;;;;22.51;66.12;100884.56;1025246;29;639;-80
2022/08/04 03:57:53;;;;;;;;;;;;;;;22.54;66.01;100877.09;1024955;29;644;-80
2022/08/04 03:58:43;;;;;;;;;;;;;;;22.33;66.11;100886.66;1023927;29;1194;-79
2022/08/04 03:59:34;;;;;;;;;;;;;;;22.35;67.03;100889.22;1021986;29;612;-81
2022/08/04 04:00:24;;;;;;;;;;;;;;;;;;1021134;29;579;-81
2022/08/04 04:01:15;;;;;;;;;;;;;;;22.62;65.60;100887.91;1021887;29;675;-80
2022/08/04 04:02:05;;;;;;;;;;;;;;;22.66;66.06;100889.25;1021641;29;664;-81
2022/08/04 04:02:55;;;;;;;;;;;;;;;22.69;65.72;100884.31;1021600;29;606;-81
2022/08/04 04:03:46;;;;;;;;;;;;;;;22.73;65.77;100882.09;1021758;29;713;-81
2022/08/04 04:04:36;;;;;;;;;;;;;;;22.62;65.14;100879.75;1021755;29;651;-81
2022/08/04 04:05:27;;;;;;;;;;;;;;;22.79;65.63;100882.25;1021503;29;643;-81
2022/08/04 04:06:17;;;;;;;;;;;;;;;22.91;65.32;100880.00;1022185;29;671;-80
2022/08/04 04:07:08;;;;;;;;;;;;;;;23.03;65.00;100886.69;1021595;29;642;-80
2022/08/04 04:07:59;;;;;;;;;;;;;;;23.13;64.88;100875.59;1021650;29;690;-80
2022/08/04 04:08:49;;;;;;;;;;;;;;;23.17;64.60;100877.75;1021300;29;1093;-81
2022/08/04 04:09:39;;;;;;;;;;;;;;;23.22;64.89;100876.38;1021406;29;1129;-80
2022/08/04 04:10:30;;;;;;;;;;;;;;;23.26;64.78;100888.59;1024855;29;733;-79
2022/08/04 04:11:21;;;;;;;;;;;;;;;23.27;64.92;100882.13;1025329;28;650;-78
2022/08/04 04:12:11;;;;;;;;;;;;;;;23.27;64.68;100885.69;1022089;28;1977;-79
2022/08/04 04:13:01;;;;;;;;;;;;;;;23.22;64.54;100884.53;1021725;29;686;-78
2022/08/04 04:13:53;;;;;;;;;;;;;;;23.17;64.50;100885.91;1021488;29;697;-78
2022/08/04 04:14:44;;;;;;;;;;;;;;;23.22;64.68;100889.97;1020485;29;635;-78
2022/08/04 04:15:34;;;;;;;;;;;;;;;23.25;64.88;100887.75;1021413;29;1068;-77
2022/08/04 04:16:25;;;;;;;;;;;;;;;23.11;64.21;100883.91;1020986;29;651;-77
2022/08/04 04:17:15;;;;;;;;;;;;;;;23.12;65.02;100885.59;1021503;29;772;-77
2022/08/04 04:18:05;;;;;;;;;;;;;;;23.12;64.77;100893.75;1022601;29;722;-79
2022/08/04 04:18:56;;;;;;;;;;;;;;;23.22;65.00;100887.25;1023982;29;694;-79
2022/08/04 04:19:46;;;;;;;;;;;;;;;23.20;64.64;100890.16;1025301;28;670;-79
2022/08/04 04:20:37;;;;;;;;;;;;;;;23.25;64.42;100886.91;1021527;29;682;-80
2022/08/04 04:21:27;;;;;;;;;;;;;;;23.31;64.65;100883.44;1024038;29;695;-79
2022/08/04 04:22:18;;;;;;;;;;;;;;;23.31;64.62;100886.16;1025701;28;674;-81
2022/08/04 04:23:08;;;;;;;;;;;;;;;23.36;64.26;100881.03;1021912;28;683;-80
2022/08/04 04:23:58;;;;;;;;;;;;;;;23.37;64.64;100880.00;1021534;29;714;-79
2022/08/04 04:24:49;;;;;;;;;;;;;;;23.36;64.20;100889.19;1021744;29;827;-79
2022/08/04 04:25:41;;;;;;;;;;;;;;;23.34;64.48;100888.53;1021044;29;634;-78
2022/08/04 04:26:31;;;;;;;;;;;;;;;23.39;64.38;100891.56;1020898;29;659;-79
2022/08/04 04:27:22;;;;;;;;;;;;;;;23.41;64.30;100894.94;1021927;29;671;-78
2022/08/04 04:28:12;;;;;;;;;;;;;;;23.43;64.33;100890.16;1021475;29;698;-79